Time;durP1;ratioP1;P1;durP2;ratioP2;P2;SDS_P1;SDS_P2;PMS_P1;PMS_P2;Temp;Humidity;BMP_temperature;BMP_pressure;BME280_temperature;BME280_humidity;BME280_pressure;Samples;Min_cycle;Max_cycle;Signal;HPM_P1;HPM_P2
2023/03/02 00:01:49;;;;;;;24.98;16.73;;;2.50;99.90;;;;;;5056486;28;20151;-55
2023/03/02 00:04:23;;;;;;;23.05;17.92;;;2.60;99.90;;;;;;5055121;28;20456;-55
2023/03/02 00:06:54;;;;;;;24.40;17.20;;;2.40;99.90;;;;;;5056353;28;20632;-54
2023/03/02 00:09:20;;;;;;;25.60;18.92;;;;;;;;;;5054954;28;20036;-55
2023/03/02 00:11:46;;;;;;;21.55;13.90;;;;;;;;;;5055151;28;20043;-54
2023/03/02 00:14:12;;;;;;;22.27;16.80;;;;;;;;;;5053874;28;20526;-54
2023/03/02 00:16:39;;;;;;;23.27;18.00;;;;;;;;;;5070323;28;20044;-54
2023/03/02 00:19:05;;;;;;;23.05;16.67;;;;;;;;;;5056296;28;20551;-55
2023/03/02 00:21:31;;;;;;;24.50;16.95;;;;;;;;;;5055019;28;20154;-55
2023/03/02 00:23:57;;;;;;;31.63;20.98;;;;;;;;;;5055453;28;20063;-54
2023/03/02 00:26:23;;;;;;;26.33;19.92;;;;;;;;;;5055065;28;20040;-54
2023/03/02 00:28:49;;;;;;;28.90;19.00;;;;;;;;;;5055990;28;20059;-55
2023/03/02 00:31:15;;;;;;;24.35;18.23;;;;;;;;;;5055944;28;20036;-55
2023/03/02 00:33:41;;;;;;;25.05;18.20;;;;;;;;;;5054853;28;20082;-55
2023/03/02 00:36:15;;;;;;;23.55;17.70;;;;;;;;;;5055009;28;20040;-55
2023/03/02 00:38:41;;;;;;;25.80;18.08;;;;;;;;;;5055593;28;20101;-55
2023/03/02 00:41:07;;;;;;;28.05;19.65;;;;;;;;;;5054670;28;20036;-55
2023/03/02 00:43:33;;;;;;;24.52;18.00;;;;;;;;;;5055248;28;20060;-55
2023/03/02 00:45:59;;;;;;;28.60;19.20;;;;;;;;;;5067962;28;20041;-55
2023/03/02 00:48:25;;;;;;;31.42;19.95;;;;;;;;;;5055590;28;20064;-55
2023/03/02 00:50:51;;;;;;;25.40;17.08;;;;;;;;;;5053612;28;20492;-56
2023/03/02 00:53:17;;;;;;;25.92;17.98;;;;;;;;;;5055561;28;20189;-53
2023/03/02 00:55:53;;;;;;;23.77;17.50;;;2.20;99.90;;;;;;5055421;28;20044;-54
2023/03/02 00:58:20;;;;;;;27.95;17.95;;;;;;;;;;5054443;28;20508;-55
2023/03/02 01:00:46;;;;;;;23.60;16.30;;;;;;;;;;5055695;28;20044;-54
2023/03/02 01:03:12;;;;;;;27.67;18.85;;;;;;;;;;5052095;28;20527;-54
2023/03/02 01:05:38;;;;;;;24.45;16.30;;;;;;;;;;5054955;28;20374;-52
2023/03/02 01:08:04;;;;;;;29.25;19.55;;;;;;;;;;5053811;28;20416;-54
2023/03/02 01:10:33;;;;;;;27.25;17.73;;;2.00;99.90;;;;;;5054740;28;20068;-53
2023/03/02 01:12:59;;;;;;;27.88;19.95;;;;;;;;;;5053836;28;20609;-55
2023/03/02 01:15:25;;;;;;;26.60;17.52;;;;;;;;;;5054499;28;20044;-51
2023/03/02 01:17:51;;;;;;;29.80;19.25;;;;;;;;;;5055190;28;20045;-54
2023/03/02 01:20:17;;;;;;;29.63;20.20;;;;;;;;;;5055113;28;20528;-52
2023/03/02 01:22:43;;;;;;;31.92;20.05;;;1.90;99.90;;;;;;5053828;28;20041;-55
2023/03/02 01:25:10;;;;;;;32.33;20.83;;;2.00;99.90;;;;;;5054297;28;20033;-54
2023/03/02 01:27:36;;;;;;;30.33;18.80;;;;;;;;;;5053508;28;20056;-54
2023/03/02 01:30:03;;;;;;;29.55;20.38;;;;;;;;;;5054322;28;20311;-55
2023/03/02 01:32:29;;;;;;;30.48;19.45;;;;;;;;;;5053802;28;20041;-53
2023/03/02 01:34:55;;;;;;;33.67;21.05;;;;;;;;;;5054154;28;20052;-55
2023/03/02 01:37:22;;;;;;;28.83;20.02;;;;;;;;;;5052855;28;20359;-55
2023/03/02 01:39:48;;;;;;;29.92;19.20;;;1.80;99.90;;;;;;5053207;28;20149;-54
2023/03/02 01:42:15;;;;;;;27.60;17.95;;;;;;;;;;5051337;28;20037;-55
2023/03/02 01:44:44;;;;;;;25.77;18.65;;;1.70;99.90;;;;;;5053453;28;20074;-53
2023/03/02 01:47:18;;;;;;;24.88;17.60;;;1.70;99.90;;;;;;5054861;28;20052;-55
2023/03/02 01:49:51;;;;;;;29.15;18.48;;;1.70;99.90;;;;;;5054368;28;20044;-53
2023/03/02 01:52:18;;;;;;;28.55;16.33;;;;;;;;;;5053403;28;20049;-55
2023/03/02 01:54:48;;;;;;;23.35;16.08;;;1.70;99.90;;;;;;5053961;28;20055;-55
2023/03/02 01:57:21;;;;;;;23.92;15.93;;;1.70;99.90;;;;;;5054424;28;20048;-56
2023/03/02 01:59:47;;;;;;;23.17;16.23;;;;;;;;;;5052877;28;20064;-55
2023/03/02 02:02:13;;;;;;;23.60;14.52;;;;;;;;;;5053461;28;21325;-55
2023/03/02 02:04:43;;;;;;;23.15;14.35;;;1.70;99.90;;;;;;5053256;28;20411;-55
2023/03/02 02:07:10;;;;;;;20.48;13.35;;;;;;;;;;5054394;28;20122;-55
2023/03/02 02:09:49;;;;;;;24.45;16.00;;;1.80;99.90;;;;;;5054352;28;20044;-55
2023/03/02 02:12:18;;;;;;;23.58;15.35;;;1.80;99.90;;;;;;5053124;28;20055;-55
2023/03/02 02:14:45;;;;;;;25.58;18.00;;;;;;;;;;5052701;28;20105;-55
2023/03/02 02:17:11;;;;;;;26.27;14.52;;;;;;;;;;5053580;28;20556;-54
2023/03/02 02:19:52;;;;;;;26.35;16.55;;;1.70;99.90;;;;;;5052517;28;20044;-53
2023/03/02 02:22:48;;;;;;;21.70;13.07;;;1.70;99.90;;;;;;5053126;28;20441;-55
2023/03/02 02:25:25;;;;;;;26.50;16.08;;;1.40;99.90;;;;;;5048015;28;20055;-55
2023/03/02 02:27:51;;;;;;;30.30;18.17;;;;;;;;;;5054085;28;20044;-54
2023/03/02 02:30:18;;;;;;;27.08;16.88;;;;;;;;;;5052822;28;20047;-53
2023/03/02 02:32:44;;;;;;;26.02;16.63;;;1.70;99.90;;;;;;5052876;28;20044;-55
2023/03/02 02:35:21;;;;;;;31.60;20.88;;;1.50;99.90;;;;;;5052438;28;20411;-54
2023/03/02 02:37:54;;;;;;;32.67;19.10;;;1.40;99.90;;;;;;5052529;28;20051;-55
2023/03/02 02:40:22;;;;;;;35.67;19.05;;;;;;;;;;5053488;28;20992;-54
2023/03/02 02:42:50;;;;;;;33.70;20.58;;;1.40;99.90;;;;;;5053217;28;20755;-55
2023/03/02 02:45:25;;;;;;;36.83;22.00;;;1.40;99.90;;;;;;5053763;28;20033;-53
2023/03/02 02:47:52;;;;;;;37.00;22.80;;;;;;;;;;5052954;28;20040;-55
2023/03/02 02:50:20;;;;;;;34.45;21.33;;;;;;;;;;5053534;28;20641;-53
2023/03/02 02:52:52;;;;;;;33.25;21.73;;;1.40;99.90;;;;;;5054160;28;20040;-55
2023/03/02 02:55:18;;;;;;;;;;;;;;;;;;5054702;28;20155;-55
2023/03/02 02:57:45;;;;;;;32.05;19.48;;;1.40;99.90;;;;;;5054930;28;20024;-54
2023/03/02 03:00:17;;;;;;;34.10;22.40;;;;;;;;;;5053409;28;20070;-54
2023/03/02 03:02:45;;;;;;;36.97;22.48;;;;;;;;;;5054314;28;20044;-53
2023/03/02 03:05:14;;;;;;;36.47;22.52;;;1.40;99.90;;;;;;5053652;28;20591;-53
2023/03/02 03:07:40;;;;;;;40.88;24.30;;;;;;;;;;5051841;28;20048;-55
2023/03/02 03:10:18;;;;;;;35.15;22.08;;;1.60;99.90;;;;;;5053051;28;20131;-54
2023/03/02 03:12:45;;;;;;;37.03;24.08;;;1.60;99.90;;;;;;5053333;28;20044;-55
2023/03/02 03:15:11;;;;;;;34.25;21.60;;;;;;;;;;5052910;28;20417;-55
2023/03/02 03:17:37;;;;;;;38.15;23.33;;;;;;;;;;5052642;28;20032;-52
2023/03/02 03:20:09;;;;;;;41.67;24.88;;;1.60;99.90;;;;;;5053597;28;20087;-53
2023/03/02 03:22:36;;;;;;;41.72;24.38;;;;;;;;;;5052626;28;20033;-54
2023/03/02 03:25:02;;;;;;;44.72;24.15;;;;;;;;;;5053487;28;20081;-55
2023/03/02 03:27:29;;;;;;;35.70;21.65;;;;;;;;;;5052754;28;20508;-55
2023/03/02 03:29:55;;;;;;;43.78;23.50;;;;;;;;;;5053456;28;20136;-53
2023/03/02 03:32:21;;;;;;;42.63;24.73;;;;;;;;;;5052736;28;20484;-55
2023/03/02 03:34:47;;;;;;;47.38;27.50;;;;;;;;;;5051341;28;20041;-55
2023/03/02 03:37:16;;;;;;;43.78;24.35;;;1.50;99.90;;;;;;5051436;28;20128;-54
2023/03/02 03:39:42;;;;;;;44.20;24.15;;;;;;;;;;5052062;28;20044;-54
2023/03/02 03:42:08;;;;;;;48.00;24.95;;;;;;;;;;5052218;28;20475;-55
2023/03/02 03:44:34;;;;;;;38.85;23.63;;;;;;;;;;5052475;28;20048;-55
2023/03/02 03:47:00;;;;;;;39.58;24.20;;;;;;;;;;5052044;28;20223;-55
2023/03/02 03:49:27;;;;;;;44.72;25.77;;;;;;;;;;5054263;28;20033;-55
2023/03/02 03:51:53;;;;;;;42.47;25.50;;;;;;;;;;5056041;28;20437;-52
2023/03/02 03:54:19;;;;;;;42.10;23.25;;;;;;;;;;5055887;28;20044;-54
2023/03/02 03:56:47;;;;;;;54.72;24.70;;;1.30;99.90;;;;;;5056189;28;20246;-54
2023/03/02 03:59:16;;;;;;;42.60;23.83;;;;;;;;;;5055520;28;20099;-55
2023/03/02 04:01:44;;;;;;;55.92;24.65;;;1.50;99.90;;;;;;5055249;28;20040;-53
2023/03/02 04:04:15;;;;;;;34.40;18.58;;;1.60;99.90;;;;;;5054660;28;20063;-54
2023/03/02 04:06:42;;;;;;;54.50;24.55;;;;;;;;;;5055440;28;20064;-55
2023/03/02 04:09:08;;;;;;;42.05;23.27;;;;;;;;;;5055386;28;20043;-54
2023/03/02 04:11:36;;;;;;;43.58;21.17;;;1.30;99.90;;;;;;5055553;28;20504;-54
2023/03/02 04:14:03;;;;;;;57.40;26.55;;;;;;;;;;5054952;28;21621;-54
2023/03/02 04:16:29;;;;;;;51.55;24.48;;;;;;;;;;5056007;28;20076;-54
2023/03/02 04:18:56;;;;;;;54.22;25.60;;;;;;;;;;5055051;28;20045;-53
2023/03/02 04:21:22;;;;;;;46.55;18.88;;;;;;;;;;5055240;28;20131;-55
2023/03/02 04:23:48;;;;;;;47.97;23.83;;;;;;;;;;5056004;28;20090;-52
2023/03/02 04:26:15;;;;;;;39.35;19.27;;;1.30;99.90;;;;;;5056247;28;20748;-51
2023/03/02 04:28:41;;;;;;;48.95;24.17;;;;;;;;;;5057098;28;20133;-54
2023/03/02 04:31:07;;;;;;;57.58;26.65;;;;;;;;;;5057040;28;20090;-55
2023/03/02 04:33:33;;;;;;;44.70;21.75;;;;;;;;;;5054961;28;20041;-54
2023/03/02 04:35:59;;;;;;;53.42;24.85;;;;;;;;;;5055739;28;20036;-54
2023/03/02 04:38:28;;;;;;;58.22;27.02;;;;;;;;;;5055648;28;20048;-53
2023/03/02 04:40:56;;;;;;;58.33;26.98;;;1.20;99.90;;;;;;5055713;28;20195;-55
2023/03/02 04:43:23;;;;;;;60.08;28.38;;;;;;;;;;5055694;28;20041;-53
2023/03/02 04:45:49;;;;;;;64.35;30.00;;;;;;;;;;5055405;28;20044;-55
2023/03/02 04:48:15;;;;;;;66.40;29.90;;;;;;;;;;5054035;28;20274;-52
2023/03/02 04:50:41;;;;;;;71.95;28.55;;;;;;;;;;5055370;28;20059;-54
2023/03/02 04:53:07;;;;;;;63.65;29.15;;;;;;;;;;5054879;28;20981;-54
2023/03/02 04:55:33;;;;;;;49.42;21.35;;;;;;;;;;5057056;28;20129;-54
2023/03/02 04:57:59;;;;;;;63.75;24.40;;;;;;;;;;5055213;28;20473;-50
2023/03/02 05:00:27;;;;;;;77.35;24.17;;;;;;;;;;5054895;28;20119;-49
2023/03/02 05:02:54;;;;;;;111.43;28.08;;;;;;;;;;5054023;28;20048;-54
2023/03/02 05:05:23;;;;;;;119.78;30.42;;;1.00;99.90;;;;;;5054347;28;20059;-54
2023/03/02 05:07:50;;;;;;;135.65;28.35;;;;;;;;;;5053977;28;20722;-52
2023/03/02 05:10:17;;;;;;;183.35;31.88;;;;;;;;;;5054056;28;20156;-52
2023/03/02 05:13:01;;;;;;;208.88;32.95;;;;;;;;;;5053818;28;20040;-55
2023/03/02 05:15:27;;;;;;;170.07;30.65;;;;;;;;;;5055647;28;20086;-53
2023/03/02 05:17:53;;;;;;;228.07;35.08;;;;;;;;;;5054225;28;20052;-54
2023/03/02 05:20:20;;;;;;;165.98;34.40;;;;;;;;;;5055773;28;20039;-54
2023/03/02 05:22:46;;;;;;;269.48;35.55;;;;;;;;;;5054451;28;20143;-49
2023/03/02 05:25:13;;;;;;;209.70;30.92;;;;;;;;;;5054823;28;20156;-51
2023/03/02 05:27:39;;;;;;;238.32;33.00;;;;;;;;;;5053558;28;20052;-54
2023/03/02 05:30:05;;;;;;;183.88;31.88;;;;;;;;;;5054981;28;20121;-52
2023/03/02 05:32:31;;;;;;;247.23;32.92;;;;;;;;;;5055684;28;20094;-54
2023/03/02 05:34:58;;;;;;;205.40;29.58;;;;;;;;;;5054269;28;20496;-53
2023/03/02 05:37:24;;;;;;;151.75;27.00;;;;;;;;;;5022074;28;20169;-52
2023/03/02 05:39:50;;;;;;;138.98;25.45;;;;;;;;;;5053119;28;20075;-51
2023/03/02 05:42:16;;;;;;;161.05;26.75;;;;;;;;;;5054930;28;20417;-51
2023/03/02 05:44:42;;;;;;;219.48;33.28;;;;;;;;;;5055143;28;20557;-50
2023/03/02 05:47:08;;;;;;;186.70;29.70;;;;;;;;;;5054111;28;20052;-53
2023/03/02 05:49:34;;;;;;;217.35;28.15;;;;;;;;;;5053188;28;20044;-51
2023/03/02 05:52:00;;;;;;;185.10;26.08;;;;;;;;;;5053763;28;20041;-50
2023/03/02 05:54:27;;;;;;;245.13;26.52;;;;;;;;;;5054687;28;20099;-54
2023/03/02 05:56:53;;;;;;;295.75;30.65;;;;;;;;;;5054575;28;20081;-53
2023/03/02 05:59:19;;;;;;;332.48;32.50;;;;;;;;;;5053993;28;20458;-54
2023/03/02 06:01:46;;;;;;;399.13;38.25;;;;;;;;;;5053384;28;20683;-50
2023/03/02 06:04:12;;;;;;;299.50;34.15;;;;;;;;;;5053675;28;20776;-53
2023/03/02 06:06:38;;;;;;;157.73;20.45;;;;;;;;;;5053197;28;20036;-52
2023/03/02 06:09:04;;;;;;;244.80;34.13;;;;;;;;;;5054258;28;20048;-52
2023/03/02 06:11:31;;;;;;;297.02;30.75;;;;;;;;;;5052241;28;20048;-54
2023/03/02 06:13:57;;;;;;;225.00;32.05;;;;;;;;;;5053317;28;20493;-54
2023/03/02 06:16:23;;;;;;;138.10;18.88;;;;;;;;;;5052969;28;20051;-53
2023/03/02 06:18:49;;;;;;;262.15;30.88;;;;;;;;;;5051754;28;20067;-52
2023/03/02 06:21:15;;;;;;;284.58;31.60;;;;;;;;;;5053621;28;20645;-53
2023/03/02 06:23:41;;;;;;;230.13;26.45;;;;;;;;;;5053579;28;20043;-50
2023/03/02 06:26:09;;;;;;;254.90;32.55;;;;;;;;;;5053831;28;20048;-51
2023/03/02 06:28:35;;;;;;;152.50;25.20;;;;;;;;;;5052614;28;20041;-50
2023/03/02 06:31:01;;;;;;;199.00;24.38;;;;;;;;;;5053623;28;20040;-54
2023/03/02 06:33:27;;;;;;;257.55;30.15;;;;;;;;;;5052157;28;20060;-54
2023/03/02 06:35:53;;;;;;;177.27;25.10;;;;;;;;;;5053090;28;20489;-54
2023/03/02 06:38:19;;;;;;;233.27;32.83;;;;;;;;;;5053618;28;20479;-51
2023/03/02 06:40:45;;;;;;;240.35;29.52;;;;;;;;;;5052573;28;20052;-52
2023/03/02 06:43:11;;;;;;;135.40;19.25;;;;;;;;;;5052389;28;20182;-51
2023/03/02 06:45:38;;;;;;;217.70;31.42;;;;;;;;;;5052676;28;20044;-54
2023/03/02 06:48:04;;;;;;;153.85;26.77;;;;;;;;;;5052379;28;20254;-54
2023/03/02 06:50:30;;;;;;;194.95;27.85;;;;;;;;;;5053900;28;20048;-54
2023/03/02 06:52:57;;;;;;;317.05;36.60;;;;;;;;;;5053202;28;20147;-51
2023/03/02 06:55:23;;;;;;;283.38;37.53;;;;;;;;;;5053448;28;20112;-50
2023/03/02 06:57:50;;;;;;;251.73;34.33;;;;;;;;;;5052897;28;20048;-52
2023/03/02 07:00:23;;;;;;;280.55;37.65;;;0.80;99.90;;;;;;5053231;28;20107;-53
2023/03/02 07:02:49;;;;;;;225.63;34.35;;;;;;;;;;5050123;28;20968;-54
2023/03/02 07:05:15;;;;;;;283.80;33.42;;;;;;;;;;5051607;28;20059;-54
2023/03/02 07:07:41;;;;;;;255.13;33.45;;;;;;;;;;5052012;28;20049;-53
2023/03/02 07:10:09;;;;;;;257.83;34.92;;;;;;;;;;5054796;28;20103;-53
2023/03/02 07:12:35;;;;;;;364.23;43.70;;;;;;;;;;5053603;28;20122;-52
2023/03/02 07:15:02;;;;;;;258.58;33.08;;;;;;;;;;5051376;28;20051;-54
2023/03/02 07:17:28;;;;;;;343.83;39.08;;;;;;;;;;5051715;28;20056;-50
2023/03/02 07:19:54;;;;;;;280.83;36.92;;;;;;;;;;5051406;28;20053;-52
2023/03/02 07:22:21;;;;;;;289.98;37.08;;;;;;;;;;5055853;28;20306;-51
2023/03/02 07:24:47;;;;;;;275.35;38.38;;;;;;;;;;5055556;28;20048;-52
2023/03/02 07:27:13;;;;;;;310.38;44.72;;;;;;;;;;5057295;28;20548;-54
2023/03/02 07:29:39;;;;;;;266.52;41.15;;;;;;;;;;5053388;28;20446;-54
2023/03/02 07:32:05;;;;;;;212.88;40.03;;;;;;;;;;5055499;28;20123;-52
2023/03/02 07:34:31;;;;;;;268.25;45.53;;;;;;;;;;5054671;28;20348;-50
2023/03/02 07:36:58;;;;;;;109.72;19.77;;;;;;;;;;5054891;28;20052;-51
2023/03/02 07:39:24;;;;;;;307.02;39.13;;;;;;;;;;5055906;28;20037;-54
2023/03/02 07:41:50;;;;;;;289.15;37.00;;;;;;;;;;5055934;28;20045;-52
2023/03/02 07:44:16;;;;;;;122.68;29.95;;;;;;;;;;5056552;28;20068;-50
2023/03/02 07:46:42;;;;;;;126.25;34.47;;;;;;;;;;5056473;28;20051;-52
2023/03/02 07:49:08;;;;;;;178.82;41.05;;;;;;;;;;5055963;28;20382;-51
2023/03/02 07:51:34;;;;;;;189.70;36.88;;;;;;;;;;5056333;28;20119;-50
2023/03/02 07:54:03;;;;;;;168.20;38.95;;;1.10;99.90;;;;;;5056862;28;20044;-54
2023/03/02 07:56:29;;;;;;;159.10;38.13;;;;;;;;;;5056817;28;20093;-50
2023/03/02 07:58:55;;;;;;;255.57;43.65;;;;;;;;;;5055705;28;20779;-52
2023/03/02 08:01:21;;;;;;;238.70;42.47;;;;;;;;;;5056782;28;20416;-52
2023/03/02 08:03:47;;;;;;;133.10;35.22;;;;;;;;;;5070184;28;20068;-52
2023/03/02 08:06:13;;;;;;;195.13;34.88;;;;;;;;;;5055753;28;20045;-52
2023/03/02 08:08:40;;;;;;;396.58;44.58;;;;;;;;;;5055794;28;20044;-52
2023/03/02 08:11:07;;;;;;;188.23;30.85;;;;;;;;;;5057378;28;20049;-53
2023/03/02 08:13:33;;;;;;;197.18;33.40;;;;;;;;;;5056357;28;20106;-53
2023/03/02 08:16:00;;;;;;;160.50;31.63;;;;;;;;;;5055874;28;20512;-50
2023/03/02 08:18:26;;;;;;;170.43;33.00;;;;;;;;;;5055218;28;20585;-53
2023/03/02 08:20:53;;;;;;;160.57;36.80;;;;;;;;;;5055133;28;21151;-54
2023/03/02 08:23:19;;;;;;;234.18;36.67;;;;;;;;;;5056000;28;20524;-53
2023/03/02 08:25:46;;;;;;;222.18;36.55;;;;;;;;;;5056606;28;20251;-53
2023/03/02 08:28:12;;;;;;;168.15;34.97;;;;;;;;;;5054423;28;20037;-53
2023/03/02 08:30:38;;;;;;;102.93;25.90;;;;;;;;;;5055509;28;20501;-52
2023/03/02 08:33:04;;;;;;;201.57;34.67;;;;;;;;;;5055410;28;20504;-50
2023/03/02 08:35:30;;;;;;;157.68;33.35;;;;;;;;;;5056316;28;20036;-54
2023/03/02 08:37:58;;;;;;;184.52;30.88;;;;;;;;;;5056423;28;20071;-53
2023/03/02 08:40:24;;;;;;;182.90;31.88;;;;;;;;;;5055573;28;20048;-53
2023/03/02 08:42:55;;;;;;;122.60;27.13;;;;;;;;;;5055622;28;20040;-53
2023/03/02 08:45:24;;;;;;;192.63;34.72;;;1.60;99.90;;;;;;5055924;28;20197;-53
2023/03/02 08:47:53;;;;;;;97.32;27.75;;;1.50;99.90;;;;;;5054688;28;20111;-50
2023/03/02 08:50:19;;;;;;;116.53;33.38;;;;;;;;;;5054100;28;20109;-54
2023/03/02 08:52:46;;;;;;;75.75;29.85;;;;;;;;;;5056296;28;20127;-53
2023/03/02 08:55:12;;;;;;;67.72;28.42;;;;;;;;;;5055843;28;20033;-52
2023/03/02 08:57:40;;;;;;;74.78;28.63;;;;;;;;;;5057278;28;20044;-54
2023/03/02 09:00:08;;;;;;;67.78;31.05;;;;;;;;;;5056410;28;20444;-52
2023/03/02 09:02:34;;;;;;;62.00;29.30;;;;;;;;;;5054945;28;20072;-49
2023/03/02 09:05:00;;;;;;;78.95;33.22;;;;;;;;;;5069235;28;20087;-54
2023/03/02 09:07:26;;;;;;;95.43;39.13;;;;;;;;;;5054971;28;20498;-52
2023/03/02 09:09:52;;;;;;;76.38;31.10;;;;;;;;;;5055015;28;20040;-51
2023/03/02 09:12:18;;;;;;;65.18;26.98;;;;;;;;;;5055032;28;20051;-52
2023/03/02 09:14:44;;;;;;;64.28;26.35;;;;;;;;;;5054751;28;20033;-53
2023/03/02 09:17:14;;;;;;;74.43;31.35;;;;;;;;;;5054380;28;20448;-52
2023/03/02 09:19:40;;;;;;;60.63;27.67;;;;;;;;;;5054081;28;20075;-50
2023/03/02 09:22:07;;;;;;;56.83;27.45;;;;;;;;;;5054739;28;20037;-53
2023/03/02 09:24:35;;;;;;;59.85;30.45;;;2.60;99.90;;;;;;5053193;28;20048;-54
2023/03/02 09:27:01;;;;;;;54.22;28.08;;;;;;;;;;5070246;28;20127;-53
2023/03/02 09:29:27;;;;;;;50.35;27.42;;;;;;;;;;5053583;28;20094;-54
2023/03/02 09:31:54;;;;;;;49.70;28.38;;;;;;;;;;5055023;28;20048;-53
2023/03/02 09:34:20;;;;;;;48.05;27.17;;;;;;;;;;5053013;28;20040;-54
2023/03/02 09:36:46;;;;;;;38.00;23.65;;;;;;;;;;5052288;28;20345;-53
2023/03/02 09:39:12;;;;;;;42.67;25.35;;;;;;;;;;5054688;28;20040;-53
2023/03/02 09:42:12;;;;;;;42.60;24.50;;;3.50;99.90;;;;;;5054924;28;20459;-52
2023/03/02 09:45:00;;;;;;;36.90;22.85;;;3.60;99.90;;;;;;5055232;28;20066;-52
2023/03/02 09:47:36;;;;;;;41.75;24.88;;;3.50;99.90;;;;;;5055903;28;20041;-54
2023/03/02 09:50:20;;;;;;;41.25;24.48;;;3.90;99.90;;;;;;5054932;28;20048;-51
2023/03/02 09:53:00;;;;;;;34.05;20.90;;;3.90;99.90;;;;;;5052511;28;20040;-51
2023/03/02 09:55:31;;;;;;;34.05;22.05;;;3.70;99.90;;;;;;5054067;28;20370;-58
2023/03/02 09:58:01;;;;;;;37.53;22.95;;;3.80;99.90;;;;;;5055816;28;20040;-51
2023/03/02 10:00:27;;;;;;;33.55;20.98;;;;;;;;;;5054126;28;20044;-54
2023/03/02 10:03:20;;;;;;;36.90;21.48;;;3.70;99.90;;;;;;5053512;28;20048;-53
2023/03/02 10:05:49;;;;;;;32.45;21.30;;;3.80;99.90;;;;;;5051362;28;20113;-54
2023/03/02 10:08:19;;;;;;;32.75;20.85;;;3.80;99.90;;;;;;5053004;28;20074;-52
2023/03/02 10:10:45;;;;;;;34.28;21.73;;;;;;;;;;5053110;28;20044;-52
2023/03/02 10:13:45;;;;;;;26.08;18.05;;;3.90;99.90;;;;;;5052746;28;20123;-50
2023/03/02 10:16:51;;;;;;;28.67;17.55;;;3.80;99.90;;;;;;5053205;28;20992;-53
2023/03/02 10:19:17;;;;;;;28.35;18.55;;;;;;;;;;5052888;28;20060;-52
2023/03/02 10:21:47;;;;;;;26.55;18.35;;;3.70;99.90;;;;;;5053369;28;20323;-52
2023/03/02 10:24:48;;;;;;;25.25;16.85;;;3.50;99.90;;;;;;5053169;28;20047;-53
2023/03/02 10:27:24;;;;;;;24.38;15.68;;;3.70;99.90;;;;;;5014479;28;20360;-51
2023/03/02 10:30:01;;;;;;;24.42;15.60;;;3.80;99.90;;;;;;5044603;28;20390;-54
2023/03/02 10:32:40;;;;;;;23.20;15.77;;;3.70;99.90;;;;;;5051559;28;20048;-54
2023/03/02 10:35:24;;;;;;;26.33;16.13;;;4.20;99.90;;;;;;5052091;28;20720;-50
2023/03/02 10:37:56;;;;;;;23.33;15.65;;;4.40;99.90;;;;;;5052157;28;20517;-50
2023/03/02 10:40:46;;;;;;;25.10;16.40;;;4.50;99.90;;;;;;5053158;28;20427;-51
2023/03/02 10:43:30;;;;;;;25.73;14.63;;;4.70;99.90;;;;;;5053299;28;20096;-48
2023/03/02 10:46:06;;;;;;;23.58;14.27;;;4.90;99.90;;;;;;5050706;28;20072;-49
2023/03/02 10:48:37;;;;;;;26.38;15.48;;;;;;;;;;5051300;28;20054;-50
2023/03/02 10:51:04;;;;;;;23.15;14.05;;;;;;;;;;5051981;28;20113;-51
2023/03/02 10:53:30;;;;;;;22.55;14.63;;;;;;;;;;5052792;28;20319;-49
2023/03/02 10:55:56;;;;;;;25.77;16.70;;;;;;;;;;5051131;28;20509;-50
2023/03/02 10:58:24;;;;;;;25.40;17.02;;;4.80;99.90;;;;;;5052945;28;20040;-50
2023/03/02 11:01:17;;;;;;;23.40;14.85;;;5.00;99.90;;;;;;5050413;28;20040;-46
2023/03/02 11:03:57;;;;;;;20.17;12.02;;;5.10;99.90;;;;;;5043914;28;20060;-50
2023/03/02 11:06:23;;;;;;;23.67;14.25;;;;;;;;;;5051753;28;20757;-48
2023/03/02 11:09:00;;;;;;;24.70;15.75;;;5.60;99.90;;;;;;5052027;28;20044;-46
2023/03/02 11:11:26;;;;;;;24.45;14.27;;;;;;;;;;5052651;28;20137;-52
2023/03/02 11:13:55;;;;;;;21.48;13.95;;;;;;;;;;5051726;28;20044;-51
2023/03/02 11:16:31;;;;;;;21.17;14.02;;;5.60;99.90;;;;;;5052682;28;20050;-53
2023/03/02 11:19:01;;;;;;;19.17;11.95;;;5.70;99.90;;;;;;5053634;28;20612;-49
2023/03/02 11:21:49;;;;;;;19.08;11.80;;;5.80;99.90;;;;;;5053907;28;20043;-47
2023/03/02 11:24:37;;;;;;;17.40;9.93;;;5.90;99.90;;;;;;5052659;28;20048;-48
2023/03/02 11:27:15;;;;;;;19.98;13.23;;;5.90;99.90;;;;;;5054326;28;20048;-48
2023/03/02 11:29:49;;;;;;;23.23;13.93;;;6.00;99.90;;;;;;5052983;28;20044;-50
2023/03/02 11:32:15;;;;;;;22.27;14.27;;;;;;;;;;5053306;28;20043;-50
2023/03/02 11:34:41;;;;;;;22.92;14.18;;;;;;;;;;5051762;28;20049;-48
2023/03/02 11:37:27;;;;;;;21.13;13.38;;;6.10;99.90;;;;;;5053412;28;20044;-50
2023/03/02 11:40:16;;;;;;;18.98;12.35;;;5.90;99.90;;;;;;5052525;28;20398;-49
2023/03/02 11:42:43;;;;;;;18.08;11.07;;;6.30;99.90;;;;;;5052209;28;20502;-49
2023/03/02 11:45:12;;;;;;;16.02;9.25;;;6.30;99.90;;;;;;5053422;28;20412;-50
2023/03/02 11:47:41;;;;;;;16.98;10.23;;;6.30;99.90;;;;;;5052750;28;20037;-50
2023/03/02 11:50:12;;;;;;;17.92;12.63;;;6.20;99.90;;;;;;5052296;28;20048;-48
2023/03/02 11:52:45;;;;;;;19.83;12.40;;;6.50;99.90;;;;;;5052594;28;20055;-49
2023/03/02 11:55:25;;;;;;;17.90;11.65;;;6.40;99.90;;;;;;5052933;28;21206;-47
2023/03/02 11:57:58;;;;;;;16.52;11.15;;;6.60;99.90;;;;;;5053058;28;20119;-50
2023/03/02 12:00:40;;;;;;;14.85;8.63;;;6.30;99.90;;;;;;5052850;28;20079;-50
2023/03/02 12:03:06;;;;;;;19.23;11.83;;;;;;;;;;5053095;28;20044;-50
2023/03/02 12:05:35;;;;;;;20.00;12.45;;;6.30;99.90;;;;;;5053669;28;20397;-48
2023/03/02 12:08:30;;;;;;;19.77;12.70;;;6.20;99.90;;;;;;5052675;28;20055;-49
2023/03/02 12:10:56;;;;;;;19.27;11.82;;;;;;;;;;5055963;28;20045;-46
2023/03/02 12:13:29;;;;;;;17.52;9.52;;;6.40;99.90;;;;;;5055316;28;20075;-47
2023/03/02 12:15:55;;;;;;;21.63;13.20;;;;;;;;;;5056072;28;20048;-46
2023/03/02 12:18:21;;;;;;;24.50;13.75;;;;;;;;;;5056257;28;20048;-50
2023/03/02 12:21:07;;;;;;;20.20;10.55;;;6.60;99.90;;;;;;5055070;28;20044;-47
2023/03/02 12:23:39;;;;;;;24.15;14.88;;;6.80;99.90;;;;;;5055432;28;20114;-48
2023/03/02 12:26:19;;;;;;;27.07;15.77;;;6.70;99.90;;;;;;5054946;28;20051;-46
2023/03/02 12:29:09;;;;;;;27.77;16.13;;;6.90;99.90;;;;;;5057101;28;20044;-51
2023/03/02 12:31:53;;;;;;;29.45;16.85;;;7.20;99.90;;;;;;5057557;28;20464;-49
2023/03/02 12:34:50;;;;;;;28.40;16.70;;;6.80;99.90;;;;;;5055918;28;20147;-48
2023/03/02 12:37:36;;;;;;;25.13;16.25;;;6.70;99.90;;;;;;5057014;28;20474;-45
2023/03/02 12:40:20;;;;;;;29.98;18.48;;;6.70;99.90;;;;;;5056358;28;20101;-50
2023/03/02 12:43:11;;;;;;;30.83;15.90;;;7.00;99.90;;;;;;5055029;28;20047;-50
2023/03/02 12:45:46;;;;;;;33.58;17.23;;;7.00;99.90;;;;;;5055368;28;20447;-47
2023/03/02 12:48:31;;;;;;;24.67;15.70;;;7.00;99.90;;;;;;5055377;28;20045;-50
2023/03/02 12:51:02;;;;;;;22.13;13.75;;;7.30;99.90;;;;;;5055157;28;20131;-50
2023/03/02 12:53:29;;;;;;;21.25;13.88;;;7.00;99.90;;;;;;5055863;28;21196;-48
2023/03/02 12:55:55;;;;;;;22.02;13.73;;;;;;;;;;5056029;28;20044;-50
2023/03/02 12:58:24;;;;;;;20.98;13.43;;;6.80;99.90;;;;;;5056781;28;20123;-50
2023/03/02 13:00:58;;;;;;;20.80;13.07;;;6.80;99.90;;;;;;5056144;28;20045;-46
2023/03/02 13:03:26;;;;;;;19.40;12.88;;;7.00;99.90;;;;;;5053518;28;20048;-47
2023/03/02 13:06:01;;;;;;;18.38;12.48;;;6.90;99.90;;;;;;5055878;28;20052;-50
2023/03/02 13:08:28;;;;;;;17.77;11.05;;;6.80;99.90;;;;;;5054338;28;20534;-48
2023/03/02 13:10:56;;;;;;;17.70;10.95;;;6.70;99.90;;;;;;5054852;28;20444;-49
2023/03/02 13:13:25;;;;;;;17.58;11.70;;;;;;;;;;5055058;28;20544;-49
2023/03/02 13:16:00;;;;;;;20.10;12.02;;;6.30;99.90;;;;;;5053941;28;20040;-47
2023/03/02 13:18:32;;;;;;;15.40;10.45;;;6.20;99.90;;;;;;5054100;28;20052;-51
2023/03/02 13:20:59;;;;;;;15.20;10.57;;;6.10;99.90;;;;;;5054213;28;20150;-48
2023/03/02 13:23:27;;;;;;;17.90;10.02;;;6.10;99.90;;;;;;5054439;28;20044;-50
2023/03/02 13:25:55;;;;;;;19.00;12.32;;;6.10;99.90;;;;;;5055327;28;20048;-47
2023/03/02 13:28:23;;;;;;;18.02;11.80;;;6.20;99.90;;;;;;5055650;28;20055;-51
2023/03/02 13:30:57;;;;;;;16.52;10.88;;;6.00;99.90;;;;;;5054707;28;20125;-51
2023/03/02 13:33:25;;;;;;;17.55;11.15;;;6.20;99.90;;;;;;5054136;28;20047;-49
2023/03/02 13:35:51;;;;;;;16.17;8.55;;;;;;;;;;5055283;28;20062;-49
2023/03/02 13:38:19;;;;;;;16.50;12.25;;;6.30;99.90;;;;;;5054848;28;20516;-47
2023/03/02 13:40:50;;;;;;;16.98;10.75;;;6.40;99.90;;;;;;5051576;28;20059;-48
2023/03/02 13:43:33;;;;;;;20.25;13.40;;;6.40;99.90;;;;;;5054526;28;20048;-50
2023/03/02 13:45:59;;;;;;;20.92;12.60;;;;;;;;;;5053534;28;20227;-47
2023/03/02 13:48:26;;;;;;;22.02;15.68;;;;;;;;;;5054242;28;20040;-47